Time;durP1;ratioP1;P1;durP2;ratioP2;P2;SDS_P1;SDS_P2;PMS_P1;PMS_P2;Temp;Humidity;BMP_temperature;BMP_pressure;BME280_temperature;BME280_humidity;BME280_pressure;Samples;Min_cycle;Max_cycle;Signal;HPM_P1;HPM_P2
2022/03/29 00:00:38;;;;;;;25.25;11.25;;;;;;;7.81;80.52;101594.16;5052541;28;20040;-67
2022/03/29 00:03:07;;;;;;;25.35;12.27;;;;;;;7.77;80.56;101590.16;5052432;28;20384;-67
2022/03/29 00:05:34;;;;;;;28.35;11.13;;;;;;;7.74;81.19;101589.66;5052589;28;20139;-67
2022/03/29 00:08:00;;;;;;;22.92;10.77;;;;;;;7.71;81.04;101587.31;5052442;28;20029;-67
2022/03/29 00:10:26;;;;;;;23.00;11.45;;;;;;;7.64;81.24;101587.94;5052388;28;20111;-67
2022/03/29 00:12:53;;;;;;;24.77;11.43;;;;;;;7.58;81.37;101579.78;5052041;28;20369;-67
2022/03/29 00:15:22;;;;;;;22.08;11.73;;;;;;;7.53;82.18;101582.91;5052273;28;20033;-67
2022/03/29 00:17:48;;;;;;;26.38;11.10;;;;;;;7.51;82.23;101581.41;5051570;28;20139;-67
2022/03/29 00:20:18;;;;;;;26.08;11.70;;;;;;;7.47;82.68;101572.94;5052086;28;20500;-67
2022/03/29 00:22:44;;;;;;;29.27;11.57;;;;;;;7.43;83.05;101572.41;5052023;28;20079;-67
2022/03/29 00:25:10;;;;;;;24.77;11.50;;;;;;;7.42;83.05;101575.22;5052081;28;20094;-67
2022/03/29 00:27:37;;;;;;;25.80;12.32;;;;;;;7.40;83.20;101570.06;5051885;28;20051;-67
2022/03/29 00:30:07;;;;;;;25.27;12.07;;;;;;;7.36;83.47;101560.78;5052098;28;20036;-67
2022/03/29 00:32:33;;;;;;;24.10;11.90;;;;;;;7.38;83.87;101563.25;5051565;28;20078;-67
2022/03/29 00:34:59;;;;;;;29.15;13.25;;;;;;;7.37;83.64;101564.25;5051771;28;20053;-67
2022/03/29 00:37:24;;;;;;;27.52;11.95;;;;;;;7.33;83.86;101555.75;5051960;28;20488;-67
2022/03/29 00:39:49;;;;;;;29.27;12.55;;;;;;;7.29;84.23;101550.94;5051826;28;20053;-67
2022/03/29 00:42:15;;;;;;;26.45;12.07;;;;;;;7.31;83.97;101549.81;5050442;28;20029;-67
2022/03/29 00:44:40;;;;;;;27.65;12.38;;;;;;;7.30;84.13;101542.81;5051799;28;20029;-67
2022/03/29 00:47:06;;;;;;;27.08;12.80;;;;;;;7.30;84.52;101550.78;5051625;28;20035;-67
2022/03/29 00:49:31;;;;;;;30.20;11.25;;;;;;;7.25;84.70;101539.81;5051693;28;20054;-67
2022/03/29 00:52:00;;;;;;;25.73;12.05;;;;;;;7.23;85.21;101545.28;5051448;28;20041;-67
2022/03/29 00:54:30;;;;;;;23.95;11.70;;;;;;;7.21;85.11;101544.59;5051466;28;20103;-67
2022/03/29 00:57:00;;;;;;;28.00;13.23;;;;;;;7.20;85.21;101542.09;5051268;28;20024;-67
2022/03/29 00:59:26;;;;;;;23.80;11.55;;;;;;;7.15;84.82;101536.41;5051439;28;20464;-67
2022/03/29 01:01:52;;;;;;;25.63;12.70;;;;;;;7.13;85.65;101535.78;5049919;28;20354;-67
2022/03/29 01:04:18;;;;;;;27.63;13.75;;;;;;;7.11;85.89;101532.44;5050265;28;20075;-67
2022/03/29 01:06:44;;;;;;;28.67;12.80;;;;;;;7.09;85.81;101523.81;5051079;28;20087;-67
2022/03/29 01:09:11;;;;;;;30.95;13.07;;;;;;;7.06;86.37;101521.47;5051263;28;20400;-67
2022/03/29 01:11:38;;;;;;;27.70;13.20;;;;;;;7.03;85.95;101526.09;5051044;28;20036;-67
2022/03/29 01:14:04;;;;;;;25.95;12.98;;;;;;;6.97;86.60;101510.81;5051201;28;20029;-67
2022/03/29 01:19:17;;;;;;;29.73;14.43;;;;;;;6.91;86.97;101516.72;5050983;28;20040;-67
2022/03/29 01:21:51;;;;;;;27.05;11.88;;;;;;;6.85;86.77;101514.72;5050969;28;20029;-67
2022/03/29 01:24:17;;;;;;;28.63;13.23;;;;;;;6.86;87.08;101515.53;5051077;28;20091;-67
2022/03/29 01:26:42;;;;;;;26.23;13.20;;;;;;;6.79;87.18;101507.38;5050819;28;20136;-67
2022/03/29 01:29:08;;;;;;;25.52;12.38;;;;;;;6.78;87.53;101501.22;5049735;28;20112;-67
2022/03/29 01:31:35;;;;;;;31.35;15.13;;;;;;;6.76;87.63;101511.19;5050738;28;20033;-67
2022/03/29 01:34:00;;;;;;;31.02;14.48;;;;;;;6.74;88.10;101509.66;5049519;28;20059;-67
2022/03/29 01:36:27;;;;;;;28.55;14.70;;;;;;;6.68;88.52;101505.81;5049121;28;20060;-67
2022/03/29 01:38:53;;;;;;;32.55;15.25;;;;;;;6.73;88.33;101514.16;5050629;28;20075;-67
2022/03/29 01:41:18;;;;;;;29.42;13.63;;;;;;;6.70;88.70;101505.66;5050642;28;20056;-67
2022/03/29 01:43:43;;;;;;;30.00;13.48;;;;;;;6.64;88.80;101498.31;5049196;28;20103;-67
2022/03/29 01:46:12;;;;;;;33.03;15.45;;;;;;;6.62;89.22;101505.59;5050666;28;20032;-67
2022/03/29 01:48:38;;;;;;;34.22;15.65;;;;;;;6.59;88.85;101506.72;5050609;28;20033;-67
2022/03/29 01:51:04;;;;;;;29.23;15.40;;;;;;;6.47;89.32;101482.31;5050255;28;20071;-67
2022/03/29 01:53:29;;;;;;;32.70;15.85;;;;;;;6.51;89.34;101499.56;5050386;28;20024;-67
2022/03/29 01:55:59;;;;;;;34.17;15.27;;;;;;;6.45;90.45;101486.94;5050336;28;20393;-67
2022/03/29 01:58:27;;;;;;;31.35;16.02;;;;;;;6.49;90.15;101492.75;5050586;28;20045;-67
2022/03/29 02:00:53;;;;;;;31.50;16.13;;;;;;;6.41;90.11;101482.91;5050257;28;20025;-67
2022/03/29 02:03:19;;;;;;;31.73;14.82;;;;;;;6.41;90.21;101490.84;5050202;28;20021;-67
2022/03/29 02:05:44;;;;;;;31.58;15.93;;;;;;;6.37;90.24;101481.56;5050130;28;20041;-67
2022/03/29 02:08:10;;;;;;;36.63;17.13;;;;;;;6.33;90.54;101481.03;5050101;28;20032;-67
2022/03/29 02:10:35;;;;;;;30.23;14.23;;;;;;;6.31;90.53;101477.72;5049953;28;20052;-67
2022/03/29 02:13:01;;;;;;;29.25;14.50;;;;;;;6.28;90.61;101474.53;5048635;28;20036;-68
2022/03/29 02:15:26;;;;;;;29.80;14.63;;;;;;;6.26;90.90;101473.84;5049560;28;20074;-67
2022/03/29 02:17:52;;;;;;;38.47;17.25;;;;;;;6.25;91.28;101469.53;5050000;28;20995;-67
2022/03/29 02:20:19;;;;;;;29.83;15.77;;;;;;;6.24;91.12;101471.38;5081905;28;20036;-67
2022/03/29 02:22:45;;;;;;;32.78;16.65;;;;;;;6.17;91.73;101456.25;5049890;28;20028;-67
2022/03/29 02:25:11;;;;;;;32.58;17.17;;;;;;;6.13;92.83;101453.91;5049878;28;20033;-67
2022/03/29 02:27:41;;;;;;;36.40;20.27;;;;;;;6.11;92.58;101442.63;5049732;28;20033;-67
2022/03/29 02:30:09;;;;;;;38.78;16.67;;;;;;;6.15;93.04;101451.06;5048459;28;20033;-67
2022/03/29 02:32:34;;;;;;;35.20;17.17;;;;;;;6.14;93.44;101447.59;5049512;28;20033;-67
2022/03/29 02:35:00;;;;;;;35.58;19.77;;;;;;;6.12;92.99;101444.28;5049647;28;20056;-69
2022/03/29 02:37:25;;;;;;;33.85;16.20;;;;;;;6.12;92.92;101441.63;5049532;28;20091;-67
2022/03/29 02:39:51;;;;;;;40.75;17.17;;;;;;;6.11;93.18;101437.31;5049407;28;20377;-67
2022/03/29 02:42:16;;;;;;;35.55;17.17;;;;;;;6.11;93.47;101436.50;5049595;28;20039;-67
2022/03/29 02:44:42;;;;;;;37.10;17.38;;;;;;;6.11;93.28;101431.19;5049583;28;20029;-67
2022/03/29 02:47:07;;;;;;;38.28;19.42;;;;;;;6.07;93.71;101428.00;5049492;28;20044;-67
2022/03/29 02:49:32;;;;;;;39.33;18.10;;;;;;;6.07;93.81;101424.53;5049474;28;20029;-67
2022/03/29 02:51:58;;;;;;;37.42;18.90;;;;;;;6.07;94.07;101416.59;5049414;28;20028;-67
2022/03/29 02:54:23;;;;;;;32.10;16.50;;;;;;;6.08;93.75;101420.91;5049337;28;20426;-67
2022/03/29 02:56:50;;;;;;;41.47;18.95;;;;;;;6.09;93.55;101409.31;5049366;28;20032;-67
2022/03/29 02:59:16;;;;;;;35.63;18.25;;;;;;;6.10;93.91;101417.13;5049295;28;20057;-67
2022/03/29 03:01:41;;;;;;;35.83;17.30;;;;;;;6.11;93.86;101410.00;5049421;28;20408;-67
2022/03/29 03:04:07;;;;;;;37.20;21.05;;;;;;;6.06;93.72;101401.69;5049055;28;20029;-68
2022/03/29 03:06:33;;;;;;;39.72;21.30;;;;;;;6.06;93.83;101409.63;5049250;28;20024;-67
2022/03/29 03:08:58;;;;;;;34.95;17.70;;;;;;;5.98;94.07;101402.47;5049236;28;20032;-67
2022/03/29 03:11:24;;;;;;;41.08;23.42;;;;;;;5.99;94.26;101411.22;5049079;28;20051;-67
2022/03/29 03:13:50;;;;;;;38.60;21.40;;;;;;;5.95;94.58;101408.06;5049263;28;20037;-67
2022/03/29 03:16:16;;;;;;;38.80;20.52;;;;;;;5.90;94.69;101405.84;5049008;28;20033;-67
2022/03/29 03:18:41;;;;;;;41.13;24.05;;;;;;;5.86;95.59;101395.69;5049027;28;20083;-67
2022/03/29 03:21:06;;;;;;;40.83;21.45;;;;;;;5.84;95.86;101402.94;5049124;28;20029;-67
2022/03/29 03:23:32;;;;;;;40.03;22.98;;;;;;;5.83;95.65;101404.78;5049187;28;20021;-67
2022/03/29 03:25:57;;;;;;;40.80;19.63;;;;;;;5.82;95.76;101394.34;5049025;28;20037;-67
2022/03/29 03:28:22;;;;;;;39.65;20.77;;;;;;;5.82;95.22;101389.06;5051900;28;20119;-67
2022/03/29 03:30:48;;;;;;;36.90;20.80;;;;;;;5.79;95.80;101391.97;5053114;28;20025;-67
2022/03/29 03:33:13;;;;;;;44.90;22.95;;;;;;;5.76;95.51;101389.66;5052884;28;20040;-68
2022/03/29 03:35:39;;;;;;;37.78;21.45;;;;;;;5.70;95.74;101394.56;5052999;28;20048;-67
2022/03/29 03:38:08;;;;;;;42.85;23.88;;;;;;;5.70;95.37;101401.69;5052935;28;20625;-68
2022/03/29 03:40:34;;;;;;;38.55;20.88;;;;;;;5.64;95.70;101395.19;5052965;28;20453;-67
2022/03/29 03:43:03;;;;;;;40.88;21.48;;;;;;;5.64;95.66;101389.06;5052817;28;20112;-69
2022/03/29 03:45:28;;;;;;;39.05;21.38;;;;;;;5.60;96.42;101388.50;5051100;28;20927;-67
2022/03/29 03:47:54;;;;;;;47.78;23.35;;;;;;;5.55;96.31;101377.53;5052513;28;20120;-67
2022/03/29 03:50:20;;;;;;;43.53;20.80;;;;;;;5.55;96.45;101382.84;5051542;28;20052;-67
2022/03/29 03:52:45;;;;;;;40.03;20.95;;;;;;;5.53;96.37;101373.38;5052569;28;20047;-67
2022/03/29 03:55:11;;;;;;;36.65;20.00;;;;;;;5.53;96.15;101381.31;5052549;28;20029;-67
2022/03/29 03:57:36;;;;;;;44.92;23.60;;;;;;;5.48;96.33;101384.44;5052638;28;20492;-67
2022/03/29 04:00:03;;;;;;;40.72;22.60;;;;;;;5.48;96.29;101379.16;5052378;28;20083;-67
2022/03/29 04:02:29;;;;;;;39.08;19.98;;;;;;;5.41;96.20;101370.16;5052448;28;20013;-68
2022/03/29 04:04:54;;;;;;;44.22;20.58;;;;;;;5.40;96.19;101363.19;5051079;28;20531;-67
2022/03/29 04:07:20;;;;;;;45.03;22.08;;;;;;;5.31;96.73;101361.44;5052388;28;20124;-67
2022/03/29 04:09:45;;;;;;;38.33;21.85;;;;;;;5.32;96.58;101358.66;5052334;28;20036;-67
2022/03/29 04:12:11;;;;;;;42.42;21.85;;;;;;;5.30;96.81;101365.06;5052277;28;20037;-67
2022/03/29 04:14:36;;;;;;;42.65;21.27;;;;;;;5.31;96.24;101364.91;5052397;28;20036;-67
2022/03/29 04:17:03;;;;;;;41.67;21.65;;;;;;;5.30;97.38;101359.78;5052160;28;20028;-67
2022/03/29 04:19:29;;;;;;;47.05;21.70;;;;;;;5.31;97.12;101350.88;5052242;28;20392;-67
2022/03/29 04:21:54;;;;;;;45.42;23.58;;;;;;;5.33;98.37;101356.84;5052166;28;20021;-67
2022/03/29 04:24:20;;;;;;;43.58;22.30;;;;;;;5.31;97.17;101356.97;5052091;28;20032;-67
2022/03/29 04:26:45;;;;;;;45.85;24.02;;;;;;;5.27;97.96;101351.16;5051816;28;20028;-67
2022/03/29 04:29:11;;;;;;;42.95;22.08;;;;;;;5.30;98.06;101349.22;5051815;28;20838;-67
2022/03/29 04:31:36;;;;;;;43.35;22.75;;;;;;;5.21;98.40;101338.56;5051961;28;20025;-69
2022/03/29 04:34:02;;;;;;;44.67;25.25;;;;;;;5.26;97.98;101346.84;5084214;28;20056;-68
2022/03/29 04:36:28;;;;;;;48.03;25.75;;;;;;;5.30;98.15;101347.41;5050351;28;20060;-67
2022/03/29 04:38:54;;;;;;;46.53;25.08;;;;;;;5.28;98.21;101339.59;5051773;28;20480;-67
2022/03/29 04:41:21;;;;;;;46.55;26.15;;;;;;;5.27;97.81;101337.13;5051731;28;20033;-67
2022/03/29 04:43:46;;;;;;;46.63;23.75;;;;;;;5.24;98.65;101338.25;5051814;28;20083;-67
2022/03/29 04:46:12;;;;;;;45.92;22.00;;;;;;;5.21;98.75;101338.56;5051674;28;20029;-67
2022/03/29 04:48:37;;;;;;;45.10;22.40;;;;;;;5.24;98.26;101335.59;5051678;28;20086;-67
2022/03/29 04:51:02;;;;;;;49.58;23.95;;;;;;;5.20;99.90;101336.03;5051579;28;20041;-67
2022/03/29 04:53:28;;;;;;;49.70;24.20;;;;;;;5.18;99.48;101336.19;5051451;28;20043;-67
2022/03/29 04:55:54;;;;;;;47.28;23.08;;;;;;;5.13;98.73;101327.88;5051562;28;20114;-67
2022/03/29 04:58:20;;;;;;;48.00;23.38;;;;;;;5.17;98.81;101336.34;5051746;28;20822;-67
2022/03/29 05:00:46;;;;;;;46.92;24.90;;;;;;;5.13;99.76;101334.97;5051499;28;20534;-67
2022/03/29 05:03:11;;;;;;;44.53;25.45;;;;;;;5.12;100.00;101339.44;5051454;28;20029;-67
2022/03/29 05:05:37;;;;;;;44.60;21.92;;;;;;;5.14;100.00;101329.53;5051382;28;20043;-67
2022/03/29 05:08:02;;;;;;;46.08;21.33;;;;;;;5.17;100.00;101336.34;5051315;28;20036;-67
2022/03/29 05:10:28;;;;;;;50.15;24.13;;;;;;;5.20;100.00;101328.94;5051306;28;20427;-67
2022/03/29 05:12:54;;;;;;;45.80;23.52;;;;;;;5.23;100.00;101323.34;5051148;28;20060;-67
2022/03/29 05:15:20;;;;;;;51.10;24.20;;;;;;;5.25;100.00;101321.38;5051031;28;20043;-67
2022/03/29 05:17:46;;;;;;;44.05;23.42;;;;;;;5.29;100.00;101327.19;5051176;28;20436;-67
2022/03/29 05:20:13;;;;;;;49.67;26.80;;;;;;;5.28;100.00;101322.91;5051085;28;20048;-67
2022/03/29 05:22:52;;;;;;;48.75;27.15;;;;;;;5.25;100.00;101320.56;5050882;28;20157;-67
2022/03/29 05:25:19;;;;;;;45.70;24.45;;;;;;;5.13;100.00;101313.81;5050900;28;20104;-67
2022/03/29 05:27:46;;;;;;;46.55;24.25;;;;;;;5.20;100.00;101325.47;5050758;28;20041;-67
2022/03/29 05:30:12;;;;;;;48.92;23.67;;;;;;;5.19;100.00;101315.88;5050765;28;20029;-67
2022/03/29 05:32:38;;;;;;;47.20;24.77;;;;;;;5.20;100.00;101320.19;5050711;28;20033;-67
2022/03/29 05:35:05;;;;;;;49.75;23.63;;;;;;;5.27;100.00;101321.25;5050446;28;20075;-67
2022/03/29 05:37:31;;;;;;;47.58;23.55;;;;;;;5.28;100.00;101321.09;5050648;28;20036;-67
2022/03/29 05:39:56;;;;;;;45.83;24.15;;;;;;;5.27;100.00;101322.06;5050319;28;20044;-67
2022/03/29 05:42:21;;;;;;;47.15;25.17;;;;;;;5.24;100.00;101324.19;5050450;28;20025;-67
2022/03/29 05:44:47;;;;;;;47.63;23.48;;;;;;;5.26;100.00;101324.84;5050365;28;20362;-67
2022/03/29 05:49:57;;;;;;;54.33;23.13;;;;;;;5.24;100.00;101325.03;5049589;28;20059;-67
2022/03/29 05:52:23;;;;;;;47.15;22.48;;;;;;;5.20;100.00;101318.38;5049919;28;20473;-67
2022/03/29 05:54:49;;;;;;;46.50;24.23;;;;;;;5.27;100.00;101314.16;5048605;28;20037;-67
2022/03/29 05:57:15;;;;;;;49.40;25.77;;;;;;;5.27;100.00;101314.16;5050409;28;20093;-67
2022/03/29 05:59:42;;;;;;;46.08;24.50;;;;;;;5.24;100.00;101308.34;5050095;28;20113;-69
2022/03/29 06:02:08;;;;;;;49.47;25.55;;;;;;;5.24;100.00;101310.97;5050294;28;20456;-67
2022/03/29 06:04:36;;;;;;;50.03;25.35;;;;;;;5.19;100.00;101303.50;5050037;28;20032;-67
2022/03/29 06:07:04;;;;;;;48.28;22.75;;;;;;;5.22;100.00;101308.47;5049042;28;20040;-67
2022/03/29 06:09:30;;;;;;;49.65;22.45;;;;;;;5.22;100.00;101310.28;5050103;28;20028;-67
2022/03/29 06:11:56;;;;;;;57.42;26.58;;;;;;;5.23;100.00;101311.94;5049978;28;20483;-68
2022/03/29 06:14:22;;;;;;;47.63;24.17;;;;;;;5.18;100.00;101308.91;5049949;28;20053;-69
2022/03/29 06:16:47;;;;;;;52.92;23.05;;;;;;;5.16;100.00;101306.44;5050111;28;20483;-67
2022/03/29 06:19:13;;;;;;;48.35;22.42;;;;;;;5.18;100.00;101315.03;5049840;28;20021;-69
2022/03/29 06:21:40;;;;;;;50.75;23.92;;;;;;;5.17;100.00;101307.25;5049672;28;20446;-67
2022/03/29 06:24:07;;;;;;;50.08;23.95;;;;;;;5.12;100.00;101314.81;5049858;28;20036;-67
2022/03/29 06:26:34;;;;;;;54.90;21.75;;;;;;;5.03;100.00;101308.59;5049477;28;20032;-67
2022/03/29 06:28:59;;;;;;;48.97;22.92;;;;;;;5.08;100.00;101319.53;5049741;28;20028;-68
2022/03/29 06:31:25;;;;;;;55.65;24.80;;;;;;;5.05;100.00;101310.09;5049545;28;20036;-67
2022/03/29 06:33:50;;;;;;;54.58;25.27;;;;;;;5.10;100.00;101314.94;5049632;28;20040;-68
2022/03/29 06:36:17;;;;;;;56.00;22.15;;;;;;;5.10;100.00;101309.66;5049387;28;20060;-69
2022/03/29 06:38:44;;;;;;;47.58;23.38;;;;;;;5.05;100.00;101296.06;5049449;28;20028;-67
2022/03/29 06:41:10;;;;;;;50.95;25.88;;;;;;;5.18;100.00;101311.56;5049382;28;20059;-67
2022/03/29 06:43:36;;;;;;;52.55;24.85;;;;;;;5.21;100.00;101313.91;5049579;28;20036;-67
2022/03/29 06:46:03;;;;;;;51.63;24.98;;;;;;;5.25;100.00;101318.75;5048170;28;20029;-67
2022/03/29 06:48:29;;;;;;;53.95;26.73;;;;;;;5.30;100.00;101323.59;5049469;28;20025;-68
2022/03/29 06:50:54;;;;;;;53.90;25.90;;;;;;;5.28;100.00;101317.63;5049510;28;20476;-67
2022/03/29 06:53:19;;;;;;;46.33;23.42;;;;;;;5.22;100.00;101311.13;5049411;28;20048;-67
2022/03/29 06:55:45;;;;;;;49.42;23.30;;;;;;;5.20;100.00;101315.72;5047959;28;20048;-69
2022/03/29 06:58:10;;;;;;;51.42;23.75;;;;;;;5.14;100.00;101308.41;5049059;28;20151;-68
2022/03/29 07:00:36;;;;;;;44.00;22.00;;;;;;;5.14;100.00;101313.69;5049151;28;20108;-67
2022/03/29 07:03:01;;;;;;;46.35;20.98;;;;;;;5.20;100.00;101312.25;5048228;28;20037;-67
2022/03/29 07:05:27;;;;;;;47.40;21.02;;;;;;;5.22;100.00;101310.28;5049052;28;20025;-68
2022/03/29 07:07:52;;;;;;;43.33;22.40;;;;;;;5.30;100.00;101317.47;5049026;28;20104;-67
2022/03/29 07:13:03;;;;;;;44.55;22.42;;;;;;;5.33;100.00;101312.72;5049227;28;20875;-67
2022/03/29 07:15:29;;;;;;;46.55;21.48;;;;;;;5.31;100.00;101303.25;5048949;28;20033;-67
2022/03/29 07:17:55;;;;;;;53.55;26.00;;;;;;;5.36;100.00;101311.56;5049071;28;20078;-67
2022/03/29 07:20:21;;;;;;;46.75;22.30;;;;;;;5.40;100.00;101313.78;5048855;28;20025;-67
2022/03/29 07:22:47;;;;;;;46.03;20.00;;;;;;;5.42;100.00;101319.75;5081244;28;20033;-66
2022/03/29 07:25:14;;;;;;;49.85;21.02;;;;;;;5.40;100.00;101311.13;5048956;28;20052;-67
2022/03/29 07:27:40;;;;;;;55.95;25.10;;;;;;;5.42;100.00;101317.09;5049036;28;20068;-67
2022/03/29 07:30:06;;;;;;;49.90;21.63;;;;;;;5.40;100.00;101315.59;5049021;28;20510;-67
2022/03/29 07:32:33;;;;;;;41.33;18.17;;;;;;;5.43;100.00;101316.09;5048971;28;20064;-67
2022/03/29 07:34:58;;;;;;;47.03;23.40;;;;;;;5.44;100.00;101311.63;5048804;28;20025;-69
2022/03/29 07:37:24;;;;;;;44.47;22.08;;;;;;;5.44;100.00;101306.34;5048997;28;20108;-68
2022/03/29 07:39:53;;;;;;;48.38;23.58;;;;;;;5.47;100.00;101300.75;5048885;28;20510;-67
2022/03/29 07:42:21;;;;;;;46.65;22.98;;;;;;;5.45;100.00;101300.94;5048947;28;20565;-69
2022/03/29 07:44:46;;;;;;;50.53;24.77;;;;;;;5.50;100.00;101311.03;5048673;28;20107;-69
2022/03/29 07:47:12;;;;;;;48.78;24.65;;;;;;;5.46;100.00;101313.16;5048833;28;20116;-67
2022/03/29 07:49:37;;;;;;;44.72;22.08;;;;;;;5.47;100.00;101316.63;5048821;28;20563;-67
2022/03/29 07:52:04;;;;;;;49.80;24.30;;;;;;;5.58;100.00;101316.41;5048594;28;20041;-67
2022/03/29 07:54:29;;;;;;;54.17;24.08;;;;;;;5.66;100.00;101321.78;5048728;28;20045;-67
2022/03/29 07:56:56;;;;;;;66.63;29.48;;;;;;;5.70;100.00;101314.34;5047386;28;20032;-67
2022/03/29 07:59:21;;;;;;;57.72;24.60;;;;;;;5.63;100.00;101300.06;5048701;28;20508;-69
2022/03/29 08:01:47;;;;;;;57.78;24.42;;;;;;;5.61;100.00;101312.63;5048650;28;20112;-67
2022/03/29 08:04:12;;;;;;;51.40;23.73;;;;;;;5.62;100.00;101306.34;5048608;28;20135;-67
2022/03/29 08:06:37;;;;;;;49.65;22.83;;;;;;;5.65;100.00;101309.50;5048678;28;20029;-67
2022/03/29 08:09:03;;;;;;;48.22;21.02;;;;;;;5.64;100.00;101315.78;5046203;28;20105;-67
2022/03/29 08:11:29;;;;;;;49.75;22.77;;;;;;;5.67;100.00;101309.38;5043561;28;20021;-67
2022/03/29 08:13:56;;;;;;;50.45;24.65;;;;;;;5.67;100.00;101323.41;5077920;28;20056;-68
2022/03/29 08:16:21;;;;;;;43.90;22.98;;;;;;;5.67;100.00;101319.94;5048333;28;20086;-68
2022/03/29 08:18:47;;;;;;;44.55;22.95;;;;;;;5.65;100.00;101316.63;5047912;28;20025;-67
2022/03/29 08:23:57;;;;;;;50.53;24.58;;;;;;;5.77;100.00;101319.88;5061194;28;20071;-68
2022/03/29 08:26:22;;;;;;;44.90;22.08;;;;;;;5.78;100.00;101310.94;5048062;28;20029;-68
2022/03/29 08:28:48;;;;;;;49.45;22.85;;;;;;;5.86;100.00;101314.47;5079804;28;20025;-68
2022/03/29 08:31:13;;;;;;;57.58;26.45;;;;;;;5.93;100.00;101310.25;5047872;28;20028;-68
2022/03/29 08:33:38;;;;;;;52.40;24.75;;;;;;;5.90;100.00;101309.72;5047790;28;20476;-67
2022/03/29 08:36:04;;;;;;;49.15;22.95;;;;;;;5.78;100.00;101287.13;5047014;28;20057;-68
2022/03/29 08:38:30;;;;;;;45.42;23.27;;;;;;;5.89;100.00;101313.31;5047408;28;20037;-68
2022/03/29 08:40:57;;;;;;;47.80;21.08;;;;;;;5.89;100.00;101298.28;5046919;28;20029;-68
2022/03/29 08:43:26;;;;;;;51.83;23.55;;;;;;;5.98;100.00;101301.03;5051593;28;20077;-68
2022/03/29 08:45:52;;;;;;;46.45;22.73;;;;;;;6.06;100.00;101295.78;5051375;28;20396;-68
2022/03/29 08:48:17;;;;;;;49.22;24.77;;;;;;;6.20;100.00;101297.00;5051676;28;20024;-68
2022/03/29 08:50:43;;;;;;;48.45;22.88;;;;;;;6.24;100.00;101291.25;5051572;28;20314;-68
2022/03/29 08:53:11;;;;;;;48.00;22.58;;;;;;;6.24;100.00;101298.38;5051529;28;20487;-68
2022/03/29 08:55:41;;;;;;;46.70;23.17;;;;;;;6.14;100.00;101287.88;5051364;28;20036;-68
2022/03/29 08:58:06;;;;;;;43.78;22.58;;;;;;;6.17;100.00;101303.44;5051723;28;20040;-68
2022/03/29 09:00:32;;;;;;;48.47;22.60;;;;;;;6.10;100.00;101295.31;5050080;28;20057;-68
2022/03/29 09:02:58;;;;;;;45.63;20.75;;;;;;;6.08;100.00;101289.34;5051614;28;20055;-68
2022/03/29 09:05:27;;;;;;;46.95;24.83;;;;;;;6.14;100.00;101288.72;5051397;28;20028;-68
2022/03/29 09:07:55;;;;;;;42.85;21.70;;;;;;;6.20;100.00;101299.66;5051248;28;20029;-68
2022/03/29 09:10:22;;;;;;;48.03;22.85;;;;;;;6.22;100.00;101297.69;5051122;28;20462;-68
2022/03/29 09:12:48;;;;;;;44.53;20.95;;;;;;;6.26;100.00;101299.88;5050921;28;20531;-68
2022/03/29 09:15:14;;;;;;;41.28;21.70;;;;;;;6.26;100.00;101297.22;5051161;28;20033;-68
2022/03/29 09:17:41;;;;;;;46.35;23.27;;;;;;;6.32;100.00;101296.59;5050764;28;20362;-68
2022/03/29 09:20:21;;;;;;;46.05;22.48;;;;;;;6.36;100.00;101307.69;5051100;28;20032;-68
2022/03/29 09:22:51;;;;;;;45.47;20.83;;;;;;;6.41;100.00;101305.41;5050679;28;20053;-68
2022/03/29 09:25:22;;;;;;;42.33;21.95;;;;;;;6.44;100.00;101310.38;5049890;28;20031;-68
2022/03/29 09:27:58;;;;;;;47.58;22.88;;;;;;;6.47;100.00;101298.63;5051004;28;20110;-68
2022/03/29 09:30:26;;;;;;;41.05;21.10;;;;;;;6.56;100.00;101297.69;5050877;28;20025;-68
2022/03/29 09:32:57;;;;;;;47.28;21.83;;;;;;;6.66;100.00;101300.22;5050747;28;20024;-68
2022/03/29 09:35:23;;;;;;;49.00;23.05;;;;;;;6.72;100.00;101305.69;5050696;28;20103;-68
2022/03/29 09:37:48;;;;;;;42.08;22.15;;;;;;;6.65;99.83;101288.78;5050640;28;20489;-68
2022/03/29 09:40:14;;;;;;;43.90;21.98;;;;;;;6.69;99.68;101299.91;5050720;28;20028;-68
2022/03/29 09:42:40;;;;;;;47.25;22.02;;;;;;;6.67;99.67;101302.69;5050758;28;20438;-68
2022/03/29 09:45:06;;;;;;;41.97;21.13;;;;;;;6.62;99.45;101290.91;5050706;28;20029;-68
2022/03/29 09:47:32;;;;;;;46.53;22.50;;;;;;;6.59;100.00;101287.59;5050656;28;20033;-68
2022/03/29 09:49:59;;;;;;;47.58;23.60;;;;;;;6.66;100.00;101297.56;5050514;28;20090;-68
2022/03/29 09:52:26;;;;;;;41.80;21.33;;;;;;;6.67;99.80;101288.63;5050127;28;20199;-68
2022/03/29 09:55:17;;;;;;;42.08;20.63;;;;;;;6.69;99.72;101289.31;5050332;28;20028;-68
2022/03/29 09:57:49;;;;;;;42.85;22.38;;;;;;;6.72;100.00;101288.97;5050278;28;20147;-68
2022/03/29 10:00:33;;;;;;;39.85;21.98;;;;;;;6.78;99.62;101277.72;5050114;28;20029;-68
2022/03/29 10:03:01;;;;;;;40.75;21.48;;;;;;;6.79;99.44;101284.69;5050128;28;20029;-68
2022/03/29 10:05:26;;;;;;;41.15;19.60;;;;;;;6.87;98.50;101279.41;5050126;28;20032;-68
2022/03/29 10:09:25;;;;;;;43.85;23.25;;;;;;;6.88;98.41;101285.53;5050123;28;20017;-68
2022/03/29 10:10:46;;;;;;;38.55;19.23;;;;;;;6.87;98.65;101270.63;5049934;28;20040;-68
2022/03/29 10:13:13;;;;;;;41.10;19.77;;;;;;;6.88;98.98;101269.63;5049871;28;20041;-68
2022/03/29 10:15:39;;;;;;;45.47;23.00;;;;;;;7.01;98.56;101265.50;5049961;28;20082;-68
2022/03/29 10:18:05;;;;;;;42.80;18.58;;;;;;;6.96;98.35;101254.56;5049854;28;20056;-68
2022/03/29 10:20:31;;;;;;;38.03;17.25;;;;;;;7.17;98.16;101258.56;5049935;28;20035;-68
2022/03/29 10:22:59;;;;;;;43.53;21.77;;;;;;;7.16;97.31;101255.09;5049698;28;20036;-68
2022/03/29 10:25:26;;;;;;;37.35;21.25;;;;;;;7.16;97.25;101259.59;5049699;28;20032;-68
2022/03/29 10:27:52;;;;;;;40.15;19.73;;;;;;;7.17;97.51;101261.22;5049758;28;20060;-68
2022/03/29 10:30:36;;;;;;;43.42;20.52;;;;;;;7.24;97.53;101257.75;5049809;28;20033;-68
2022/03/29 10:33:31;;;;;;;47.22;24.17;;;;;;;7.30;97.23;101247.47;5047804;28;20040;-68
2022/03/29 10:36:11;;;;;;;44.30;22.52;;;;;;;7.33;96.32;101249.81;5044465;28;20049;-69
2022/03/29 10:38:43;;;;;;;46.08;21.70;;;;;;;7.42;96.08;101244.34;5043683;28;20025;-68
2022/03/29 10:41:27;;;;;;;47.38;24.50;;;;;;;7.51;95.55;101244.31;5045262;28;20140;-68
2022/03/29 10:44:14;;;;;;;42.95;22.67;;;;;;;7.57;94.94;101244.50;5045416;28;20082;-68
2022/03/29 10:46:43;;;;;;;45.95;23.13;;;;;;;7.77;94.60;101247.63;5045457;28;20025;-67
2022/03/29 10:49:28;;;;;;;46.20;23.08;;;;;;;7.82;93.10;101239.97;5044816;28;20025;-68
2022/03/29 10:52:05;;;;;;;44.63;22.55;;;;;;;7.97;92.70;101244.59;5045382;28;20024;-68
2022/03/29 10:54:41;;;;;;;43.42;24.08;;;;;;;7.94;92.06;101235.16;5045119;28;20139;-67
2022/03/29 10:57:24;;;;;;;38.28;20.20;;;;;;;8.03;90.76;101239.44;5045045;28;20043;-67
2022/03/29 10:59:51;;;;;;;40.03;20.67;;;;;;;8.10;90.78;101235.09;5046289;28;20480;-67
2022/03/29 11:02:20;;;;;;;38.78;21.05;;;;;;;8.23;90.61;101231.91;5048757;28;20060;-68
2022/03/29 11:05:04;;;;;;;36.45;19.73;;;;;;;8.38;89.15;101226.69;5049376;28;20031;-68
2022/03/29 11:07:36;;;;;;;33.50;16.33;;;;;;;8.53;88.06;101226.81;5049101;28;20098;-68
2022/03/29 11:10:23;;;;;;;36.10;17.65;;;;;;;8.54;87.48;101217.81;5049169;28;20540;-68
2022/03/29 11:12:49;;;;;;;35.65;17.70;;;;;;;8.49;87.34;101206.91;5047668;28;20025;-68
2022/03/29 11:15:23;;;;;;;34.15;19.00;;;;;;;8.58;86.77;101216.50;5049253;28;20039;-68
2022/03/29 11:17:49;;;;;;;36.47;18.85;;;;;;;8.65;86.29;101209.47;5049049;28;20021;-68
2022/03/29 11:20:27;;;;;;;38.33;19.00;;;;;;;8.82;85.95;101212.03;5049152;28;20476;-68
2022/03/29 11:22:52;;;;;;;38.22;19.95;;;;;;;8.97;85.58;101204.94;5048842;28;20393;-67
2022/03/29 11:25:22;;;;;;;38.72;20.80;;;;;;;9.13;84.52;101201.34;5048532;28;20029;-68